Time;durP1;ratioP1;P1;durP2;ratioP2;P2;SDS_P1;SDS_P2;PMS_P1;PMS_P2;Temp;Humidity;BMP_temperature;BMP_pressure;BME280_temperature;BME280_humidity;BME280_pressure;Samples;Min_cycle;Max_cycle;Signal;HPM_P1;HPM_P2
2020/12/24 00:02:22;;;;;;;7.83;4.37;;;;;;;9.55;63.64;100277.97;6255640;28;20232;-77
2020/12/24 00:05:42;;;;;;;5.67;3.43;;;;;;;9.69;63.66;100267.38;6250605;28;20228;-75
2020/12/24 00:09:03;;;;;;;4.53;2.80;;;;;;;9.54;63.54;100269.31;6245664;28;20245;-76
2020/12/24 00:12:23;;;;;;;5.83;3.23;;;;;;;9.40;64.04;100273.81;6255655;28;20737;-77
2020/12/24 00:15:45;;;;;;;6.33;2.70;;;;;;;9.46;63.90;100271.16;6255266;28;20227;-75
2020/12/24 00:19:05;;;;;;;6.60;3.27;;;;;;;9.51;63.70;100264.16;6249870;28;20229;-77
2020/12/24 00:22:25;;;;;;;8.20;4.47;;;;;;;9.47;63.74;100252.09;6242160;28;20228;-76
2020/12/24 00:25:46;;;;;;;4.40;2.87;;;;;;;9.34;64.05;100250.53;6258154;28;20315;-76
2020/12/24 00:29:08;;;;;;;9.47;3.67;;;;;;;9.13;64.14;100247.34;6250077;28;20232;-76
2020/12/24 00:32:30;;;;;;;4.13;2.57;;;;;;;9.21;64.00;100255.88;6244588;28;20285;-76
2020/12/24 00:35:50;;;;;;;4.50;2.23;;;;;;;9.23;64.11;100256.72;6267080;28;20655;-76
2020/12/24 00:39:11;;;;;;;6.07;3.03;;;;;;;9.41;63.52;100262.56;6264511;28;20231;-76
2020/12/24 00:42:31;;;;;;;10.20;3.40;;;;;;;9.34;63.63;100266.97;6257254;28;20228;-76
2020/12/24 00:45:52;;;;;;;4.77;1.97;;;;;;;9.31;63.54;100263.56;6268886;28;20224;-76
2020/12/24 00:49:13;;;;;;;2.67;1.50;;;;;;;9.06;64.02;100272.50;6270350;28;20809;-76
2020/12/24 00:52:33;;;;;;;10.50;3.83;;;;;;;9.41;63.08;100267.75;6258078;28;20239;-76
2020/12/24 00:55:55;;;;;;;4.27;2.50;;;;;;;9.19;63.07;100255.03;6245066;28;20579;-77
2020/12/24 00:59:16;;;;;;;5.37;2.13;;;;;;;9.32;62.80;100260.06;6252725;28;20232;-76
2020/12/24 01:02:37;;;;;;;3.90;1.87;;;;;;;9.39;62.78;100259.13;6243608;28;20236;-76
2020/12/24 01:05:58;;;;;;;6.67;2.07;;;;;;;9.25;62.88;100273.16;6264327;28;20534;-76
2020/12/24 01:09:19;;;;;;;5.83;2.30;;;;;;;9.21;62.79;100271.47;6262512;28;20661;-77
2020/12/24 01:12:39;;;;;;;5.70;2.10;;;;;;;9.34;62.64;100281.69;6259200;28;20221;-77
2020/12/24 01:16:00;;;;;;;7.17;2.50;;;;;;;9.32;62.80;100270.47;6257173;28;20528;-78
2020/12/24 01:19:20;;;;;;;5.47;1.50;;;;;;;9.34;62.76;100271.31;6243554;28;20224;-76
2020/12/24 01:22:42;;;;;;;3.70;2.10;;;;;;;9.40;62.33;100268.63;6242594;28;20233;-77
2020/12/24 01:26:02;;;;;;;3.80;1.53;;;;;;;9.39;62.17;100264.31;6247917;28;20240;-77
2020/12/24 01:29:22;;;;;;;2.17;1.20;;;;;;;9.32;62.16;100267.88;6247694;28;20225;-77
2020/12/24 01:32:43;;;;;;;3.27;1.40;;;;;;;9.43;62.20;100248.66;6268934;28;20228;-76
2020/12/24 01:36:03;;;;;;;2.83;1.60;;;;;;;9.34;62.14;100250.53;6265159;28;20236;-75
2020/12/24 01:39:24;;;;;;;7.57;3.00;;;;;;;9.43;62.23;100243.47;6259065;28;20228;-75
2020/12/24 01:42:47;;;;;;;3.77;2.07;;;;;;;9.40;62.16;100250.44;6250776;28;20232;-75
2020/12/24 01:46:08;;;;;;;3.03;1.50;;;;;;;9.31;62.09;100250.59;6242199;28;20220;-74
2020/12/24 01:49:28;;;;;;;3.87;2.30;;;;;;;9.18;62.58;100255.91;6246948;28;20240;-75
2020/12/24 01:52:49;;;;;;;3.50;2.17;;;;;;;9.32;62.57;100260.06;6255180;28;20224;-75
2020/12/24 01:56:11;;;;;;;2.70;1.47;;;;;;;9.39;61.98;100256.53;6243192;28;20224;-76
2020/12/24 01:59:31;;;;;;;3.33;1.60;;;;;;;9.38;62.07;100255.69;6254687;28;20235;-76
2020/12/24 02:02:51;;;;;;;3.13;2.00;;;;;;;9.53;61.51;100251.13;6254806;28;20294;-77
2020/12/24 02:06:13;;;;;;;3.80;1.50;;;;;;;9.45;61.76;100254.69;6246585;28;20228;-76
2020/12/24 02:09:34;;;;;;;5.00;2.30;;;;;;;9.23;62.19;100245.47;6264652;28;20228;-76
2020/12/24 02:12:55;;;;;;;4.40;2.10;;;;;;;9.20;62.50;100243.75;6252260;28;20493;-76
2020/12/24 02:16:15;;;;;;;5.00;2.87;;;;;;;9.07;62.51;100242.19;6269269;28;20624;-76
2020/12/24 02:19:36;;;;;;;2.60;2.07;;;;;;;9.10;62.84;100236.97;6266179;28;20286;-76
2020/12/24 02:22:58;;;;;;;7.40;2.63;;;;;;;9.14;62.58;100233.44;6251848;28;20272;-76
2020/12/24 02:26:18;;;;;;;4.37;1.90;;;;;;;9.22;62.43;100217.75;6266731;28;20236;-76
2020/12/24 02:29:39;;;;;;;1.93;1.57;;;;;;;9.13;62.44;100218.75;6269058;28;20605;-77
2020/12/24 02:32:59;;;;;;;1.40;1.30;;;;;;;9.12;62.37;100227.41;6290855;28;20263;-77
2020/12/24 02:36:19;;;;;;;4.07;2.67;;;;;;;9.01;62.80;100229.28;6246758;28;20215;-76
2020/12/24 02:39:40;;;;;;;2.80;1.60;;;;;;;9.07;62.30;100217.09;6264628;28;20219;-74
2020/12/24 02:43:01;;;;;;;5.00;1.70;;;;;;;8.98;62.83;100216.34;6243785;28;20224;-76
2020/12/24 02:46:22;;;;;;;4.03;2.43;;;;;;;9.05;62.81;100192.88;6239735;28;20228;-76
2020/12/24 02:49:42;;;;;;;5.13;1.80;;;;;;;8.94;62.96;100183.50;6246122;28;20554;-75
2020/12/24 02:53:03;;;;;;;2.77;1.40;;;;;;;8.96;62.77;100186.94;6241999;28;20220;-75
2020/12/24 02:56:24;;;;;;;5.77;2.07;;;;;;;8.82;62.82;100185.38;6247017;28;20606;-75
2020/12/24 02:59:44;;;;;;;5.03;1.40;;;;;;;8.72;63.58;100182.88;6263578;28;20295;-75
2020/12/24 03:03:05;;;;;;;4.27;3.17;;;;;;;8.74;63.64;100181.13;6258686;28;20247;-75
2020/12/24 03:06:25;;;;;;;3.13;1.40;;;;;;;8.92;62.92;100180.03;6250497;28;20232;-76
2020/12/24 03:09:46;;;;;;;3.33;1.47;;;;;;;8.81;63.49;100173.25;6245293;28;20224;-75
2020/12/24 03:13:07;;;;;;;4.37;1.80;;;;;;;8.86;63.45;100183.59;6249339;28;20228;-77
2020/12/24 03:16:27;;;;;;;2.30;1.00;;;;;;;8.86;63.35;100173.22;6222825;28;20228;-76
2020/12/24 03:19:48;;;;;;;2.40;0.90;;;;;;;8.92;63.11;100180.03;6234592;28;20321;-76
2020/12/24 03:23:08;;;;;;;2.23;1.57;;;;;;;8.85;63.27;100174.94;6259525;28;20609;-76
2020/12/24 03:26:29;;;;;;;1.97;1.00;;;;;;;8.93;62.82;100167.03;6264175;28;20239;-76
2020/12/24 03:29:50;;;;;;;1.30;1.20;;;;;;;8.82;62.87;100179.28;6247023;28;20521;-77
2020/12/24 03:33:11;;;;;;;2.27;1.10;;;;;;;8.70;63.37;100167.31;6251952;28;20224;-76
2020/12/24 03:36:31;;;;;;;2.53;1.50;;;;;;;8.71;63.34;100171.66;6265827;28;20315;-76
2020/12/24 03:39:51;;;;;;;1.50;1.30;;;;;;;8.74;63.15;100171.59;6245562;28;20228;-75
2020/12/24 03:43:12;;;;;;;2.70;1.30;;;;;;;8.60;63.17;100178.69;6244674;28;20244;-75
2020/12/24 03:46:34;;;;;;;2.77;1.07;;;;;;;8.63;63.36;100176.06;6264092;28;20251;-77
2020/12/24 03:49:54;;;;;;;2.43;1.00;;;;;;;8.60;63.47;100176.09;6261834;28;20264;-76
2020/12/24 03:53:15;;;;;;;2.30;1.20;;;;;;;8.63;63.13;100181.25;6244695;28;20228;-75
2020/12/24 03:56:35;;;;;;;1.43;1.10;;;;;;;8.75;62.60;100181.13;6245648;28;20232;-76
2020/12/24 03:59:56;;;;;;;1.50;1.10;;;;;;;8.65;62.77;100177.75;6259532;28;20500;-76
2020/12/24 04:03:17;;;;;;;1.27;1.17;;;;;;;8.69;62.44;100173.41;6263862;28;20248;-76
2020/12/24 04:06:37;;;;;;;1.80;0.80;;;;;;;8.68;62.24;100171.66;6274424;28;20629;-76
2020/12/24 04:09:58;;;;;;;1.40;1.30;;;;;;;8.72;62.46;100162.97;6244424;28;20236;-76
2020/12/24 04:13:19;;;;;;;0.97;0.97;;;;;;;8.65;62.40;100171.72;6258752;28;20223;-77
2020/12/24 04:16:39;;;;;;;3.33;1.50;;;;;;;8.71;62.27;100170.78;6269867;28;20227;-77
2020/12/24 04:20:00;;;;;;;1.30;1.00;;;;;;;8.60;62.64;100183.88;6244675;28;20231;-76
2020/12/24 04:23:21;;;;;;;1.50;1.10;;;;;;;8.55;62.38;100185.66;6239289;28;20544;-75
2020/12/24 04:26:41;;;;;;;1.50;1.00;;;;;;;8.56;62.16;100192.59;6255971;28;20323;-76
2020/12/24 04:30:02;;;;;;;1.37;1.20;;;;;;;8.44;62.35;100184.03;6244142;28;20507;-76
2020/12/24 04:33:24;;;;;;;0.97;0.57;;;;;;;8.28;61.76;100188.50;6248182;28;20232;-75
2020/12/24 04:36:49;;;;;;;0.50;0.50;;;;;;;8.41;62.21;100197.06;6277631;28;20223;-77
2020/12/24 04:40:09;;;;;;;0.50;0.50;;;;;;;8.27;62.03;100191.09;6270283;28;20232;-77
2020/12/24 04:43:30;;;;;;;0.80;0.80;;;;;;;8.27;61.72;100201.47;6268056;28;20232;-76
2020/12/24 04:46:51;;;;;;;1.23;1.13;;;;;;;8.33;61.90;100206.59;6277884;28;20219;-76
2020/12/24 04:50:13;;;;;;;1.20;1.03;;;;;;;8.16;61.54;100203.31;6266925;28;20231;-76
2020/12/24 04:53:37;;;;;;;0.70;0.70;;;;;;;8.20;61.27;100215.38;6268213;28;20304;-76
2020/12/24 04:57:06;;;;;;;0.93;0.90;;;;;;;8.11;61.36;100218.06;6267694;28;20232;-76
2020/12/24 05:00:27;;;;;;;0.73;0.70;;;;;;;7.96;61.41;100217.31;6277212;28;20494;-78
2020/12/24 05:03:47;;;;;;;1.00;0.90;;;;;;;7.82;61.34;100219.16;6289483;28;20246;-76
2020/12/24 05:07:08;;;;;;;0.50;0.50;;;;;;;7.72;61.67;100214.91;6281180;28;20223;-77
2020/12/24 05:10:33;;;;;;;2.20;0.83;;;;;;;7.86;61.37;100213.06;6267407;28;20232;-76
2020/12/24 05:13:54;;;;;;;1.53;0.80;;;;;;;8.00;60.97;100210.38;6279635;28;20235;-76
2020/12/24 05:17:14;;;;;;;0.87;0.80;;;;;;;7.88;60.96;100213.91;6275476;28;20231;-76
2020/12/24 05:20:39;;;;;;;0.73;0.73;;;;;;;7.94;60.71;100219.06;6274276;28;20266;-77
2020/12/24 05:24:02;;;;;;;1.20;1.10;;;;;;;8.04;60.74;100223.28;6284722;28;20280;-76
2020/12/24 05:27:23;;;;;;;1.00;1.00;;;;;;;7.92;60.37;100230.31;6280013;28;20231;-76
2020/12/24 05:30:44;;;;;;;0.80;0.80;;;;;;;7.94;60.65;100234.59;6267571;28;20622;-76
2020/12/24 05:34:04;;;;;;;0.97;0.93;;;;;;;7.81;60.89;100233.84;6267136;28;20232;-77
2020/12/24 05:37:27;;;;;;;1.00;1.00;;;;;;;7.97;60.87;100239.78;6272411;28;20223;-78
2020/12/24 05:40:49;;;;;;;1.37;0.80;;;;;;;7.92;60.52;100240.69;6288755;28;20548;-76
2020/12/24 05:44:11;;;;;;;0.70;0.70;;;;;;;7.77;60.79;100258.06;6266880;28;20235;-76
2020/12/24 05:47:32;;;;;;;0.80;0.80;;;;;;;7.87;60.87;100245.88;6255547;28;20243;-75
2020/12/24 05:50:52;;;;;;;0.80;0.80;;;;;;;7.87;60.97;100258.84;6282228;28;20265;-75
2020/12/24 05:54:14;;;;;;;0.60;0.60;;;;;;;7.76;60.49;100263.28;6273096;28;20915;-75
2020/12/24 05:57:36;;;;;;;0.50;0.50;;;;;;;7.57;60.93;100259.91;6277660;28;20240;-74
2020/12/24 06:00:58;;;;;;;0.50;0.50;;;;;;;7.66;60.86;100265.91;6276142;28;20718;-76
2020/12/24 06:04:34;;;;;;;1.10;0.97;;;;;;;7.66;60.67;100265.91;6282226;28;20231;-74
2020/12/24 06:08:10;;;;;;;1.27;0.80;;;;;;;7.35;60.83;100275.56;6286408;28;20227;-76
2020/12/24 06:11:43;;;;;;;0.93;0.87;;;;;;;7.55;60.62;100283.25;6273776;28;20219;-75
2020/12/24 06:15:04;;;;;;;0.50;0.50;;;;;;;7.33;60.25;100299.75;6290079;28;20596;-76
2020/12/24 06:18:26;;;;;;;0.50;0.50;;;;;;;7.28;60.78;100302.38;6278810;28;20220;-76
2020/12/24 06:21:47;;;;;;;0.50;0.50;;;;;;;7.21;60.94;100290.28;6269051;28;20236;-77
2020/12/24 06:25:08;;;;;;;1.10;1.00;;;;;;;6.98;61.53;100296.44;6279548;28;20235;-77
2020/12/24 06:28:29;;;;;;;0.40;0.40;;;;;;;7.18;61.40;100306.72;6289977;28;20228;-76
2020/12/24 06:31:53;;;;;;;0.33;0.33;;;;;;;7.30;60.69;100303.22;6270018;28;20231;-74
2020/12/24 06:35:33;;;;;;;0.67;0.67;;;;;;;7.33;60.54;100307.50;6293553;28;20242;-74
2020/12/24 06:38:53;;;;;;;0.90;0.90;;;;;;;7.23;60.88;100312.75;6278931;28;20223;-76
2020/12/24 06:42:43;;;;;;;0.50;0.50;;;;;;;6.86;61.71;100320.63;6267498;28;22494;-76
2020/12/24 06:46:03;;;;;;;0.80;0.80;;;;;;;6.93;61.66;100325.78;6291628;28;20230;-75
2020/12/24 06:49:29;;;;;;;0.60;0.60;;;;;;;6.83;61.55;100333.56;6267616;28;20239;-75
2020/12/24 06:52:50;;;;;;;1.40;0.73;;;;;;;6.66;62.03;100343.06;6268146;28;20231;-76
2020/12/24 06:56:21;;;;;;;0.70;0.70;;;;;;;6.93;61.63;100338.72;6270536;28;20235;-75
2020/12/24 06:59:41;;;;;;;0.90;0.90;;;;;;;7.00;61.34;100350.75;6281478;28;20235;-76
2020/12/24 07:03:26;;;;;;;1.25;1.15;;;;;;;7.01;61.60;100342.16;6274107;28;20738;-74
2020/12/24 07:06:53;;;;;;;1.20;1.10;;;;;;;7.06;61.60;100356.81;6250359;28;20866;-76
2020/12/24 07:10:45;;;;;;;1.00;1.00;;;;;;;7.10;61.50;100366.28;6257093;28;20233;-76
2020/12/24 07:14:06;;;;;;;1.10;1.00;;;;;;;7.17;61.51;100356.78;6268901;28;20227;-75
2020/12/24 07:17:26;;;;;;;1.37;1.27;;;;;;;7.37;61.21;100367.09;6251894;28;20236;-75
2020/12/24 07:20:50;;;;;;;0.87;0.77;;;;;;;7.42;61.05;100369.66;6246100;28;20318;-75
2020/12/24 07:24:13;;;;;;;0.87;0.70;;;;;;;7.49;61.09;100376.56;6243990;28;20231;-75
2020/12/24 07:27:48;;;;;;;1.80;1.40;;;;;;;7.43;61.23;100390.38;6247201;28;20312;-75
2020/12/24 07:31:10;;;;;;;1.57;1.10;;;;;;;7.40;61.14;100374.00;6246228;28;20224;-76
2020/12/24 07:34:32;;;;;;;2.07;1.40;;;;;;;7.32;61.97;100392.16;6255145;28;20589;-75
2020/12/24 07:37:53;;;;;;;1.73;1.63;;;;;;;7.15;62.31;100397.34;6247706;28;20236;-76
2020/12/24 07:41:15;;;;;;;6.27;2.17;;;;;;;7.48;61.87;100406.78;6237871;28;20228;-74
2020/12/24 07:44:36;;;;;;;2.50;1.20;;;;;;;7.55;61.59;100407.63;6261344;28;20228;-75
2020/12/24 07:47:56;;;;;;;1.20;1.00;;;;;;;7.67;61.58;100412.75;6281490;28;20232;-76
2020/12/24 07:51:17;;;;;;;1.83;1.63;;;;;;;7.67;61.46;100422.28;6283587;28;20227;-75
2020/12/24 07:54:39;;;;;;;1.67;1.57;;;;;;;7.67;61.87;100430.03;6273990;28;20620;-77
2020/12/24 07:58:10;;;;;;;1.60;1.50;;;;;;;7.75;61.53;100435.19;6289448;28;20225;-75
2020/12/24 08:01:32;;;;;;;2.00;1.90;;;;;;;7.72;61.74;100436.09;6287756;28;20239;-76
2020/12/24 08:04:54;;;;;;;1.57;1.47;;;;;;;7.61;62.42;100441.28;6253032;28;20613;-75
2020/12/24 08:08:22;;;;;;;1.80;1.70;;;;;;;7.56;62.46;100448.22;6252827;28;20232;-76
2020/12/24 08:11:51;;;;;;;2.93;1.90;;;;;;;7.56;62.77;100456.00;6259842;28;20551;-76
2020/12/24 08:15:14;;;;;;;4.33;2.53;;;;;;;7.76;62.19;100457.69;6261841;28;20255;-76
2020/12/24 08:18:42;;;;;;;2.23;2.03;;;;;;;7.82;62.27;100457.66;6274079;28;20243;-76
2020/12/24 08:22:08;;;;;;;2.80;2.60;;;;;;;7.84;62.20;100474.06;6251931;28;20768;-75
2020/12/24 08:25:29;;;;;;;3.47;2.40;;;;;;;7.80;62.62;100485.31;6257264;28;20270;-76
2020/12/24 08:28:52;;;;;;;2.83;2.50;;;;;;;7.97;61.81;100483.53;6258396;28;20669;-75
2020/12/24 08:32:13;;;;;;;3.33;3.03;;;;;;;7.91;62.25;100488.75;6269129;28;20243;-76
2020/12/24 08:35:35;;;;;;;3.13;2.37;;;;;;;7.99;62.24;100486.13;6248699;28;20236;-76
2020/12/24 08:39:06;;;;;;;2.83;2.30;;;;;;;8.01;62.16;100485.25;6244398;28;20228;-76
2020/12/24 08:42:30;;;;;;;3.30;2.60;;;;;;;7.98;62.24;100490.44;6248834;28;20227;-78
2020/12/24 08:45:52;;;;;;;4.07;2.70;;;;;;;7.89;62.27;100500.84;6252269;28;20842;-78
2020/12/24 08:49:21;;;;;;;2.40;2.10;;;;;;;7.95;62.31;100513.78;6247368;28;21008;-77
2020/12/24 08:52:44;;;;;;;3.47;2.63;;;;;;;7.90;62.47;100512.94;6277836;28;20231;-77
2020/12/24 08:56:10;;;;;;;5.20;2.77;;;;;;;8.02;62.24;100520.66;6269096;28;20235;-76
2020/12/24 08:59:31;;;;;;;2.10;1.60;;;;;;;7.95;62.60;100521.56;6269644;28;20645;-77
2020/12/24 09:02:52;;;;;;;3.80;2.23;;;;;;;8.03;62.39;100525.00;6269927;28;20224;-77
2020/12/24 09:06:13;;;;;;;2.47;1.90;;;;;;;8.03;62.61;100530.19;6277841;28;20314;-77
2020/12/24 09:09:34;;;;;;;5.17;2.67;;;;;;;8.07;62.29;100544.88;6269006;28;20281;-77
2020/12/24 09:13:00;;;;;;;2.53;2.23;;;;;;;8.13;62.23;100545.72;6282675;28;20317;-77
2020/12/24 09:16:21;;;;;;;4.10;2.30;;;;;;;8.20;62.20;100558.66;6273838;28;20251;-75
2020/12/24 09:19:41;;;;;;;3.17;2.63;;;;;;;8.25;62.24;100556.91;6284611;28;20239;-77
2020/12/24 09:23:08;;;;;;;4.07;2.83;;;;;;;8.15;62.56;100567.34;6271920;28;20226;-76
2020/12/24 09:26:30;;;;;;;8.53;4.13;;;;;;;8.23;62.38;100568.16;6286730;28;20709;-76
2020/12/24 09:29:50;;;;;;;5.57;4.13;;;;;;;8.39;61.83;100572.41;6286540;28;20231;-77
2020/12/24 09:33:10;;;;;;;3.57;2.80;;;;;;;8.46;62.08;100575.91;6286827;28;20314;-78
2020/12/24 09:36:31;;;;;;;2.80;2.60;;;;;;;8.34;61.92;100576.78;6272507;28;20266;-80
2020/12/24 09:39:51;;;;;;;3.97;3.57;;;;;;;8.36;61.97;100584.56;6272536;28;20269;-80
2020/12/24 09:43:13;;;;;;;3.90;3.50;;;;;;;8.14;62.95;100591.53;6289988;28;20230;-80
2020/12/24 09:46:36;;;;;;;5.30;3.33;;;;;;;8.24;62.90;100595.84;6286098;28;20223;-79
2020/12/24 09:49:56;;;;;;;4.20;3.80;;;;;;;8.28;62.78;100594.97;6292091;28;20243;-79
2020/12/24 09:53:17;;;;;;;3.73;3.43;;;;;;;8.17;63.08;100588.94;6288573;28;20231;-80
2020/12/24 09:56:37;;;;;;;5.13;3.83;;;;;;;8.24;63.02;100588.06;6286097;28;20231;-78
2020/12/24 09:59:58;;;;;;;5.27;3.97;;;;;;;8.36;62.58;100590.59;6272928;28;20239;-79
2020/12/24 10:03:19;;;;;;;4.57;3.83;;;;;;;8.41;62.54;100600.94;6268779;28;20601;-79
2020/12/24 10:06:40;;;;;;;8.83;4.80;;;;;;;8.38;63.09;100601.84;6271478;28;20638;-79
2020/12/24 10:10:00;;;;;;;5.83;4.77;;;;;;;8.42;63.01;100610.50;6267673;28;20605;-80
2020/12/24 10:13:20;;;;;;;5.63;5.13;;;;;;;8.53;62.71;100607.84;6283040;28;20250;-80
2020/12/24 10:16:45;;;;;;;5.67;5.17;;;;;;;8.70;62.09;100615.59;6289363;28;20239;-79
2020/12/24 10:20:05;;;;;;;5.37;4.87;;;;;;;8.38;62.74;100614.81;6268627;28;20227;-80
2020/12/24 10:23:28;;;;;;;4.23;3.87;;;;;;;8.45;62.94;100611.38;6276390;28;20219;-79
2020/12/24 10:26:49;;;;;;;5.37;3.97;;;;;;;8.33;62.92;100608.75;6269726;28;20601;-80
2020/12/24 10:30:09;;;;;;;5.60;4.20;;;;;;;8.37;62.98;100612.22;6267321;28;20239;-80
2020/12/24 10:33:31;;;;;;;6.40;4.27;;;;;;;8.35;62.96;100609.63;6267119;28;20247;-79
2020/12/24 10:36:52;;;;;;;7.97;4.47;;;;;;;8.27;63.50;100613.97;6267646;28;20231;-79
2020/12/24 10:40:12;;;;;;;6.00;4.87;;;;;;;8.34;63.05;100607.91;6285972;28;20223;-79
2020/12/24 10:43:33;;;;;;;11.13;9.70;;;;;;;8.51;63.00;100610.50;6265929;28;20322;-80
2020/12/24 10:46:58;;;;;;;12.03;7.00;;;;;;;8.60;62.51;100607.84;6282515;28;20226;-78
2020/12/24 10:50:20;;;;;;;7.33;5.73;;;;;;;8.71;62.04;100617.31;6290955;28;20313;-80
2020/12/24 10:53:40;;;;;;;10.67;6.87;;;;;;;8.63;62.17;100618.22;6283009;28;20228;-80
2020/12/24 10:57:01;;;;;;;8.67;6.77;;;;;;;8.71;62.44;100628.56;6278485;28;20247;-78
2020/12/24 11:00:21;;;;;;;11.43;8.43;;;;;;;8.60;62.63;100626.00;6267965;28;20288;-78
2020/12/24 11:03:42;;;;;;;14.00;10.70;;;;;;;8.44;63.49;100625.19;6282664;28;20720;-79
2020/12/24 11:07:03;;;;;;;18.80;12.47;;;;;;;8.56;62.91;100633.81;6289144;28;20228;-79
2020/12/24 11:10:24;;;;;;;15.73;11.60;;;;;;;8.42;63.87;100637.31;6268262;28;20274;-79
2020/12/24 11:13:45;;;;;;;15.53;11.67;;;;;;;8.53;63.07;100628.63;6269192;28;20228;-78
2020/12/24 11:17:05;;;;;;;13.10;10.90;;;;;;;8.74;63.04;100631.13;6270701;28;20231;-78
2020/12/24 11:20:26;;;;;;;16.13;13.23;;;;;;;8.80;62.63;100638.03;6243354;28;20240;-78
2020/12/24 11:23:49;;;;;;;21.63;14.30;;;;;;;8.85;62.28;100637.13;6275348;28;20314;-79
2020/12/24 11:27:09;;;;;;;14.20;11.87;;;;;;;8.81;62.61;100635.44;6275126;28;20224;-79
2020/12/24 11:30:31;;;;;;;17.07;12.60;;;;;;;8.90;62.22;100628.47;6274599;28;20632;-79
2020/12/24 11:33:52;;;;;;;20.00;14.03;;;;;;;9.01;62.50;100644.84;6285670;28;20232;-79
2020/12/24 11:37:12;;;;;;;17.90;14.07;;;;;;;8.86;62.66;100638.88;6267746;28;20254;-79
2020/12/24 11:40:33;;;;;;;15.53;12.60;;;;;;;8.88;62.87;100636.28;6272025;28;20512;-77
2020/12/24 11:43:55;;;;;;;16.67;13.13;;;;;;;8.88;62.87;100631.09;6293346;28;20231;-78
2020/12/24 11:47:15;;;;;;;15.00;12.57;;;;;;;9.03;62.12;100630.13;6287071;28;20227;-77
2020/12/24 11:50:35;;;;;;;24.53;14.10;;;;;;;9.02;62.08;100631.00;6273508;28;20566;-78
2020/12/24 11:53:56;;;;;;;17.73;13.97;;;;;;;9.03;61.71;100632.72;6288560;28;20235;-77
2020/12/24 11:57:17;;;;;;;16.17;13.30;;;;;;;8.95;62.35;100637.09;6271240;28;20235;-78
2020/12/24 12:00:38;;;;;;;20.03;14.47;;;;;;;8.97;62.25;100636.22;6261040;28;20223;-78
2020/12/24 12:03:58;;;;;;;16.73;12.97;;;;;;;9.00;62.31;100637.94;6284116;28;20220;-79
2020/12/24 12:07:19;;;;;;;18.87;14.03;;;;;;;8.94;62.41;100643.19;6283763;28;20239;-79
2020/12/24 12:10:39;;;;;;;17.07;13.07;;;;;;;9.04;62.27;100642.25;6271562;28;20223;-77
2020/12/24 12:14:01;;;;;;;18.87;11.87;;;;;;;9.18;62.04;100648.22;6257431;28;20243;-78
2020/12/24 12:17:22;;;;;;;18.17;12.13;;;;;;;9.18;62.28;100652.56;6290590;28;20235;-78
2020/12/24 12:20:42;;;;;;;17.57;11.47;;;;;;;9.12;62.22;100650.88;6269975;28;20323;-77
2020/12/24 12:24:03;;;;;;;16.40;13.47;;;;;;;9.10;62.08;100660.41;6286705;28;20223;-78
2020/12/24 12:27:23;;;;;;;16.70;11.87;;;;;;;9.22;62.17;100652.53;6282104;28;20243;-77
2020/12/24 12:30:45;;;;;;;11.97;10.03;;;;;;;9.24;61.72;100655.97;6274466;28;20227;-78
2020/12/24 12:34:05;;;;;;;14.20;11.83;;;;;;;9.36;61.43;100659.38;6267918;28;20546;-78
2020/12/24 12:37:29;;;;;;;18.67;11.27;;;;;;;9.30;61.68;100664.63;6279156;28;20232;-78
2020/12/24 12:40:49;;;;;;;15.90;12.10;;;;;;;9.38;61.75;100665.44;6269779;28;20312;-78
2020/12/24 12:44:10;;;;;;;17.00;11.30;;;;;;;9.41;61.56;100662.81;6264767;28;20931;-79
2020/12/24 12:47:36;;;;;;;15.80;10.00;;;;;;;9.30;61.98;100675.88;6273972;28;20314;-77
2020/12/24 12:50:57;;;;;;;11.17;9.03;;;;;;;9.36;61.33;100678.41;6269885;28;20535;-78
2020/12/24 12:54:18;;;;;;;13.13;8.23;;;;;;;9.37;61.03;100684.50;6274148;28;20220;-79
2020/12/24 12:57:39;;;;;;;11.63;8.03;;;;;;;9.36;60.83;100674.97;6270172;28;20262;-79
2020/12/24 13:01:00;;;;;;;17.70;8.63;;;;;;;9.00;61.56;100682.13;6275846;28;20242;-79
2020/12/24 13:04:21;;;;;;;9.67;6.10;;;;;;;8.79;61.79;100683.91;6268240;28;20227;-78
2020/12/24 13:07:42;;;;;;;11.00;7.07;;;;;;;9.02;61.60;100681.22;6268856;28;20565;-78
2020/12/24 13:11:02;;;;;;;10.87;7.10;;;;;;;9.00;61.57;100693.34;6286683;28;20235;-79
2020/12/24 13:14:23;;;;;;;9.40;7.67;;;;;;;9.01;61.76;100694.22;6274460;28;20266;-78
2020/12/24 13:17:44;;;;;;;11.33;8.53;;;;;;;9.11;61.54;100700.22;6283138;28;20239;-78
2020/12/24 13:21:05;;;;;;;8.87;5.93;;;;;;;8.97;61.63;100708.09;6270197;28;20318;-77
2020/12/24 13:24:28;;;;;;;9.37;5.93;;;;;;;8.91;61.33;100708.13;6268097;28;20236;-78
2020/12/24 13:27:48;;;;;;;11.03;8.10;;;;;;;9.03;61.44;100708.06;6268115;28;20612;-79
2020/12/24 13:31:09;;;;;;;7.20;5.93;;;;;;;9.09;61.10;100713.22;6289652;28;20227;-78
2020/12/24 13:34:29;;;;;;;6.13;4.90;;;;;;;8.98;61.45;100720.22;6273137;28;20231;-78
2020/12/24 13:37:53;;;;;;;8.70;5.73;;;;;;;8.94;61.49;100723.69;6269702;28;20246;-78
2020/12/24 13:41:14;;;;;;;7.63;5.30;;;;;;;9.06;61.27;100729.69;6268875;28;20512;-79
2020/12/24 13:44:34;;;;;;;11.70;6.50;;;;;;;9.03;61.30;100734.91;6275081;28;20219;-79
2020/12/24 13:47:54;;;;;;;6.93;6.13;;;;;;;9.14;61.12;100732.25;6271208;28;20231;-79
2020/12/24 13:51:18;;;;;;;7.30;5.40;;;;;;;9.28;60.88;100750.38;6278919;28;20605;-77
2020/12/24 13:54:39;;;;;;;15.97;5.30;;;;;;;9.02;60.86;100748.75;6281484;28;20227;-78
2020/12/24 13:58:00;;;;;;;7.60;4.93;;;;;;;9.03;61.02;100760.91;6271481;28;20220;-78
2020/12/24 14:01:20;;;;;;;4.93;4.20;;;;;;;9.10;60.92;100768.66;6278092;28;20227;-79
2020/12/24 14:04:41;;;;;;;14.20;6.70;;;;;;;9.01;60.57;100767.78;6269756;28;20312;-77
2020/12/24 14:08:01;;;;;;;10.10;4.70;;;;;;;9.05;60.56;100771.25;6267455;28;20235;-79
2020/12/24 14:11:23;;;;;;;6.73;5.37;;;;;;;9.07;60.66;100777.31;6285616;28;20223;-78
2020/12/24 14:14:43;;;;;;;4.47;3.87;;;;;;;9.09;60.30;100778.16;6267117;28;20235;-78
2020/12/24 14:18:04;;;;;;;4.53;3.50;;;;;;;9.14;60.30;100784.22;6290747;28;20524;-79
2020/12/24 14:21:24;;;;;;;6.33;3.73;;;;;;;9.06;59.85;100791.19;6280098;28;20327;-79
2020/12/24 14:24:44;;;;;;;4.73;3.53;;;;;;;9.16;60.07;100787.66;6279904;28;20248;-79
2020/12/24 14:28:06;;;;;;;7.37;4.67;;;;;;;9.08;59.92;100792.03;6291273;28;20222;-80
2020/12/24 14:31:26;;;;;;;6.43;3.43;;;;;;;9.00;60.61;100804.19;6284791;28;20238;-79
2020/12/24 14:34:47;;;;;;;5.97;3.63;;;;;;;9.15;60.34;100801.56;6292598;28;21005;-79
2020/12/24 14:38:07;;;;;;;6.57;4.83;;;;;;;9.14;60.10;100817.13;6292111;28;20239;-79
2020/12/24 14:41:27;;;;;;;10.73;5.87;;;;;;;9.04;60.54;100819.75;6263608;28;20243;-77
2020/12/24 14:44:49;;;;;;;8.03;4.43;;;;;;;9.04;60.47;100831.88;6262942;28;20750;-79
2020/12/24 14:48:09;;;;;;;7.67;4.87;;;;;;;8.99;60.56;100828.44;6289210;28;20551;-79
2020/12/24 14:51:30;;;;;;;4.30;3.90;;;;;;;9.08;60.31;100831.00;6266393;28;20224;-78
2020/12/24 14:54:50;;;;;;;24.50;21.90;;;;;;;9.11;60.48;100841.41;6268206;28;20232;-79
2020/12/24 14:58:10;;;;;;;12.47;9.33;;;;;;;9.17;60.24;100846.56;6265484;28;20784;-79
2020/12/24 15:01:32;;;;;;;8.05;5.60;;;;;;;9.15;59.83;100852.63;6283134;28;20715;-80
2020/12/24 15:04:52;;;;;;;5.07;4.63;;;;;;;9.08;60.14;100862.19;6284774;28;20232;-78
2020/12/24 15:08:13;;;;;;;7.73;6.17;;;;;;;8.90;61.31;100882.97;6266090;28;20236;-79
2020/12/24 15:11:34;;;;;;;13.17;6.40;;;;;;;8.83;61.35;100893.38;6268129;28;20220;-78
2020/12/24 15:14:54;;;;;;;5.83;5.00;;;;;;;8.82;61.10;100895.97;6268150;28;20244;-78
2020/12/24 15:18:15;;;;;;;10.47;6.60;;;;;;;8.88;61.04;100896.00;6292032;28;20274;-78
2020/12/24 15:21:35;;;;;;;8.00;5.73;;;;;;;8.73;60.89;100902.03;6271725;28;20259;-78
2020/12/24 15:24:56;;;;;;;6.53;5.93;;;;;;;8.52;61.44;100904.63;6279554;28;20223;-79
2020/12/24 15:28:16;;;;;;;7.70;6.77;;;;;;;8.72;61.17;100915.03;6276332;28;20227;-78
2020/12/24 15:31:37;;;;;;;7.23;6.63;;;;;;;8.62;60.98;100911.56;6289484;28;20335;-79
2020/12/24 15:34:59;;;;;;;7.63;6.60;;;;;;;8.59;61.03;100914.16;6278840;28;20228;-77
2020/12/24 15:38:19;;;;;;;9.13;6.20;;;;;;;8.61;60.77;100917.63;6271804;28;20690;-78
2020/12/24 15:41:39;;;;;;;7.83;5.90;;;;;;;8.75;60.26;100910.69;6282394;28;20601;-78
2020/12/24 15:44:59;;;;;;;12.30;7.40;;;;;;;8.81;60.51;100920.22;6277689;28;20250;-79
2020/12/24 15:48:20;;;;;;;7.57;6.00;;;;;;;8.71;60.05;100932.34;6295677;28;20219;-78